OTBH/IUD METAR and TAF weather

Enter ICAO airport designator
Station Type Date Time Source
OTBH METAR 2019/06/19 00:57 UTC NOAA

OTBH 190057Z 33006KT 9000 HZ CLR 33/00 A2962 RMK SLP031 WND DATA ESTMD ALSTG/SLP ESTMD $


Station Type Date Time Source
OTBH Decoded METAR 2019/06/19 00:57 UTC NOAA

Station name not available
Jun 18, 2019 - 08:57 PM EDT / 2019.06.19 0057 UTC
Wind: from the NNW (330 degrees) at 7 MPH (6 KT):0
Visibility: 5 mile(s):0
Sky conditions: clear
Weather: haze
Temperature: 91 F (33 C)
Dew Point: 32 F (0 C)
Relative Humidity: 12%
Pressure (altimeter): 29.62 in. Hg (1003 hPa)
ob: OTBH 190057Z 33006KT 9000 HZ CLR 33/00 A2962 RMK SLP031 WND DATA ESTMD ALSTG/SLP ESTMD
cycle: 1

Station Type Date Time Source
OTBH TAF 2019/06/19 00:12 UTC NOAA

TAF TAF OTBH 190000Z 1900/2006 33009KT 9000 HZ SKC QNH2949INS
BECMG 1904/1905 35015G25KT 8000 HZ SKC QNH2955INS
TEMPO 1907/1914 34025G35KT 6000 BLDU
BECMG 1915/1916 33012G18KT 8000 HZ SKC QNH2953INS TX47/1910Z TN31/1902Z

Example: see airport list